Other Surface Observations
Issued by NWS Great Falls, MT

Home | Current Version | Previous Version | Text Only | Print | Product List | Glossary On
Versions: 1 2 3 4 5 6 7 8 9 10 11 12 13 14 15 16 17 18 19 20 21 22 23 24 25 26 27 28 29 30 31 32 33 34 35 36 37 38 39 40 41 42 43 44 45 46 47 48 49 50
000
SXUS55 KTFX 231644
OSOTFX
AREA AWOS OBSERVATIONS
NATIONAL WEATHER SERVICE GREAT FALLS MT
0944 AM MST TUE JAN 23 2018

METAR KPWD 231645Z AUTO 00000KT 10SM M09/M11 A3009 RMK PLENTYWOOD
METAR KPO1 231645Z AUTO 25004KT 10SM M10/M13 A3015 RMK POPLAR
METAR K1S3 231645Z AUTO 26006KT M03/M07 A3019 RMK FORSYTH
METAR KS71 231645Z AUTO 29005KT 10SM M04/M08 A3014 RMK CHINOOK
METAR K38S 231645Z AUTO 00000KT 10SM M09/M12 A3025 RMK DEER LODGE
METAR K3U3 231645Z AUTO 23007KT 10SM M04/M11 A3022 RMK ANACONDA
METAR K6S5 231645Z AUTO 17013KT 10SM M01/M07 A3024 RMK HAMILTON
METAR K88M 231645Z AUTO 10SM 00/M05 A3020 RMK EUREKA



USA.gov is the U.S. government's official web portal to all federal, state and local government web resources and services.